createdAt,value
2023-02-26T00:02:27.525Z,6.00
2023-02-26T00:04:56.441Z,5.50
2023-02-26T00:07:30.147Z,7.10
2023-02-26T00:09:59.037Z,6.10
2023-02-26T00:12:28.190Z,6.50
2023-02-26T00:14:57.643Z,6.40
2023-02-26T00:17:32.235Z,6.40
2023-02-26T00:20:02.813Z,6.30
2023-02-26T00:22:32.442Z,6.50
2023-02-26T00:25:01.189Z,6.30
2023-02-26T00:27:30.434Z,6.00
2023-02-26T00:29:59.310Z,6.90
2023-02-26T00:32:28.913Z,6.60
2023-02-26T00:34:59.761Z,5.90
2023-02-26T00:37:44.911Z,5.90
2023-02-26T00:40:41.470Z,6.80
2023-02-26T00:43:23.037Z,6.50
2023-02-26T00:46:02.173Z,6.10
2023-02-26T00:48:41.321Z,6.20
2023-02-26T00:51:18.454Z,5.80
2023-02-26T00:53:54.304Z,6.30
2023-02-26T00:56:23.042Z,6.80
2023-02-26T00:58:51.851Z,6.60
2023-02-26T01:01:20.437Z,6.30
2023-02-26T01:03:51.404Z,5.30
2023-02-26T01:06:21.038Z,5.80
2023-02-26T01:08:59.730Z,6.40
2023-02-26T01:11:28.702Z,5.80
2023-02-26T01:13:57.667Z,5.30
2023-02-26T01:16:29.308Z,5.30
2023-02-26T01:19:37.628Z,6.00
2023-02-26T01:22:19.687Z,5.60
2023-02-26T01:24:49.496Z,4.20
2023-02-26T01:27:23.807Z,5.50
2023-02-26T01:29:53.067Z,5.10
2023-02-26T01:32:36.740Z,5.50
2023-02-26T01:35:23.681Z,5.90
2023-02-26T01:38:18.656Z,6.20
2023-02-26T01:41:02.378Z,5.70
2023-02-26T01:43:44.779Z,5.40
2023-02-26T01:46:22.543Z,5.40
2023-02-26T01:48:53.348Z,5.90
2023-02-26T01:51:47.500Z,5.30
2023-02-26T01:54:20.103Z,4.70
2023-02-26T01:56:56.656Z,5.80
2023-02-26T01:59:25.323Z,5.30
2023-02-26T02:01:55.137Z,4.60
2023-02-26T02:04:24.152Z,5.10
2023-02-26T02:06:55.175Z,4.80
2023-02-26T02:09:23.795Z,4.70
2023-02-26T02:12:18.145Z,4.90
2023-02-26T02:15:12.575Z,5.30
2023-02-26T02:18:02.585Z,5.20
2023-02-26T02:21:30.348Z,5.00
2023-02-26T02:24:04.925Z,5.20
2023-02-26T02:26:39.645Z,5.00
2023-02-26T02:29:42.596Z,4.90
2023-02-26T02:32:14.788Z,5.00
2023-02-26T02:35:27.102Z,5.10
2023-02-26T02:38:05.955Z,4.60
2023-02-26T02:40:37.198Z,4.80
2023-02-26T03:02:07.428Z,4.00
2023-02-26T03:04:36.666Z,4.30
2023-02-26T03:07:05.253Z,4.80
2023-02-26T03:09:34.168Z,4.60
2023-02-26T03:12:03.242Z,4.80
2023-02-26T03:14:33.625Z,5.40
2023-02-26T03:17:09.811Z,5.00
2023-02-26T03:20:14.468Z,5.20
2023-02-26T03:22:50.136Z,4.10
2023-02-26T03:25:49.996Z,4.70
2023-02-26T03:28:37.099Z,5.00
2023-02-26T03:31:22.164Z,4.50
2023-02-26T03:34:30.961Z,4.70
2023-02-26T03:37:44.816Z,5.20
2023-02-26T03:40:26.868Z,4.70
2023-02-26T03:42:59.948Z,3.80
2023-02-26T03:45:33.464Z,4.60
2023-02-26T03:48:05.099Z,4.30
2023-02-26T03:50:44.747Z,4.80
2023-02-26T03:53:54.877Z,4.50
2023-02-26T03:56:42.477Z,4.50
2023-02-26T03:59:29.991Z,4.00
2023-02-26T04:02:35.033Z,5.10
2023-02-26T04:05:15.442Z,5.10
2023-02-26T04:07:45.908Z,4.30
2023-02-26T04:10:21.941Z,4.30
2023-02-26T04:12:52.349Z,5.10
2023-02-26T04:15:21.485Z,4.20
2023-02-26T04:17:50.079Z,4.30
2023-02-26T04:20:20.054Z,4.70
2023-02-26T04:22:48.976Z,4.90
2023-02-26T04:25:22.393Z,4.30
2023-02-26T04:27:51.961Z,5.10
2023-02-26T04:30:20.577Z,5.60
2023-02-26T04:32:49.823Z,5.00
2023-02-26T04:35:18.795Z,5.40
2023-02-26T04:37:47.801Z,4.70
2023-02-26T04:40:16.535Z,4.60
2023-02-26T04:42:47.334Z,4.80
2023-02-26T04:45:19.228Z,3.90
2023-02-26T04:47:47.925Z,4.80
2023-02-26T04:50:16.826Z,5.00
2023-02-26T04:52:49.187Z,4.30
2023-02-26T04:55:18.011Z,5.20
2023-02-26T04:57:46.599Z,4.70
2023-02-26T05:00:16.355Z,4.90
2023-02-26T05:02:45.009Z,4.50
2023-02-26T05:05:13.801Z,5.00
2023-02-26T05:07:46.538Z,5.00
2023-02-26T05:10:17.471Z,5.30
2023-02-26T05:12:46.710Z,5.10
2023-02-26T05:15:16.781Z,5.60
2023-02-26T05:17:47.656Z,5.10
2023-02-26T05:20:16.480Z,5.30
2023-02-26T05:22:50.959Z,4.70
2023-02-26T05:25:20.540Z,5.00
2023-02-26T05:27:49.133Z,4.30
2023-02-26T05:30:20.150Z,4.60
2023-02-26T05:32:49.188Z,5.40
2023-02-26T05:35:18.133Z,5.80
2023-02-26T05:37:47.026Z,5.80
2023-02-26T05:40:15.682Z,4.50
2023-02-26T05:42:45.550Z,4.70
2023-02-26T05:45:19.653Z,5.90
2023-02-26T05:47:48.695Z,4.90
2023-02-26T05:50:19.173Z,6.40
2023-02-26T05:52:48.963Z,5.40
2023-02-26T05:55:21.933Z,5.40
2023-02-26T05:57:53.923Z,5.50
2023-02-26T06:00:23.633Z,5.40
2023-02-26T06:02:53.079Z,4.50
2023-02-26T06:05:22.086Z,6.00
2023-02-26T06:07:54.560Z,5.70
2023-02-26T06:10:26.792Z,6.40
2023-02-26T06:12:59.392Z,6.00
2023-02-26T06:15:29.122Z,5.10
2023-02-26T06:17:57.972Z,6.20
2023-02-26T06:20:26.821Z,6.00
2023-02-26T06:22:56.682Z,5.40
2023-02-26T06:25:25.461Z,4.90
2023-02-26T06:27:54.413Z,5.40
2023-02-26T06:30:24.413Z,5.10
2023-02-26T06:32:53.321Z,5.80
2023-02-26T06:35:25.304Z,5.20
2023-02-26T06:40:33.881Z,5.40
2023-02-26T06:43:07.795Z,4.80
2023-02-26T06:45:36.925Z,5.30
2023-02-26T06:48:05.905Z,5.60
2023-02-26T06:50:40.067Z,6.00
2023-02-26T06:53:09.204Z,5.40
2023-02-26T06:55:44.123Z,5.60
2023-02-26T06:58:13.651Z,5.90
2023-02-26T07:00:42.645Z,4.70
2023-02-26T07:03:13.395Z,5.30
2023-02-26T07:05:43.239Z,5.50
2023-02-26T07:08:12.365Z,6.00
2023-02-26T07:10:41.639Z,5.50
2023-02-26T07:13:11.114Z,5.40
2023-02-26T07:15:39.764Z,5.40
2023-02-26T07:18:08.729Z,5.80
2023-02-26T07:20:38.844Z,6.00
2023-02-26T07:23:07.647Z,5.40
2023-02-26T07:25:37.805Z,5.80
2023-02-26T07:28:08.025Z,5.10
2023-02-26T07:30:37.820Z,5.30
2023-02-26T07:33:11.653Z,6.00
2023-02-26T07:35:42.844Z,6.10
2023-02-26T07:38:12.185Z,5.70
2023-02-26T07:40:41.396Z,6.20
2023-02-26T07:43:11.565Z,4.00
2023-02-26T07:45:40.694Z,5.40
2023-02-26T07:48:09.412Z,5.60
2023-02-26T07:50:38.221Z,6.00
2023-02-26T07:53:06.930Z,6.20
2023-02-26T07:55:39.686Z,5.20
2023-02-26T07:58:08.377Z,6.50
2023-02-26T08:00:38.141Z,6.90
2023-02-26T08:03:07.502Z,6.10
2023-02-26T08:05:37.961Z,6.10
2023-02-26T08:08:06.625Z,6.00
2023-02-26T08:10:36.475Z,6.20
2023-02-26T08:13:07.667Z,6.00
2023-02-26T08:15:39.727Z,6.10
2023-02-26T08:18:09.122Z,6.00
2023-02-26T08:20:38.068Z,6.90
2023-02-26T08:23:07.217Z,5.90
2023-02-26T08:25:36.194Z,5.80
2023-02-26T08:28:05.209Z,6.30
2023-02-26T08:30:35.432Z,6.70
2023-02-26T08:33:06.789Z,6.60
2023-02-26T08:35:35.742Z,6.50
2023-02-26T08:38:04.627Z,6.10
2023-02-26T08:40:34.624Z,6.20
2023-02-26T08:45:34.757Z,6.30
2023-02-26T08:48:03.982Z,5.90
2023-02-26T08:50:33.122Z,6.20
2023-02-26T08:53:02.313Z,5.60
2023-02-26T08:55:34.271Z,6.50
2023-02-26T08:58:06.012Z,5.80
2023-02-26T09:00:36.091Z,6.30
2023-02-26T09:03:05.521Z,6.40
2023-02-26T09:05:34.462Z,9.80
2023-02-26T09:08:04.021Z,8.80
2023-02-26T09:10:35.628Z,7.60
2023-02-26T09:13:05.204Z,13.50
2023-02-26T09:15:34.133Z,14.30
2023-02-26T09:18:02.952Z,26.90
2023-02-26T09:20:32.491Z,23.40
2023-02-26T09:23:06.367Z,20.60
2023-02-26T09:25:35.129Z,10.00
2023-02-26T09:28:04.276Z,7.20
2023-02-26T09:30:34.599Z,7.00
2023-02-26T09:33:03.762Z,6.30
2023-02-26T09:35:33.075Z,6.60
2023-02-26T09:38:02.085Z,8.00
2023-02-26T09:40:38.666Z,7.80
2023-02-26T09:43:24.855Z,6.50
2023-02-26T09:45:54.046Z,6.20
2023-02-26T09:48:24.634Z,6.30
2023-02-26T09:50:56.065Z,6.70
2023-02-26T09:53:52.214Z,6.60
2023-02-26T09:56:25.089Z,6.90
2023-02-26T09:58:55.986Z,6.30
2023-02-26T10:01:35.400Z,6.00
2023-02-26T10:04:37.260Z,6.10
2023-02-26T10:09:48.617Z,6.20
2023-02-26T10:12:20.228Z,6.40
2023-02-26T10:14:55.050Z,6.40
2023-02-26T10:17:41.391Z,5.80
2023-02-26T10:20:25.105Z,6.00
2023-02-26T10:25:44.839Z,5.90
2023-02-26T10:28:42.221Z,6.00
2023-02-26T10:31:33.558Z,7.00
2023-02-26T10:36:51.883Z,5.90
2023-02-26T10:40:09.853Z,5.90
2023-02-26T10:42:47.347Z,6.20
2023-02-26T10:45:34.858Z,5.50
2023-02-26T10:48:22.906Z,6.10
2023-02-26T10:50:58.772Z,6.20
2023-02-26T10:53:35.031Z,5.80
2023-02-26T10:56:10.745Z,6.80
2023-02-26T10:58:41.033Z,9.70
2023-02-26T11:01:18.520Z,7.30
2023-02-26T11:03:49.384Z,8.00
2023-02-26T11:06:29.171Z,11.60
2023-02-26T11:08:58.515Z,10.60
2023-02-26T11:11:40.509Z,8.30
2023-02-26T11:14:10.184Z,7.70
2023-02-26T11:16:52.882Z,22.80
2023-02-26T11:19:31.003Z,23.50
2023-02-26T11:22:00.262Z,14.30
2023-02-26T11:24:35.953Z,17.00
2023-02-26T11:27:06.799Z,9.50
2023-02-26T11:29:48.641Z,12.00
2023-02-26T11:32:20.280Z,41.40
2023-02-26T11:34:52.526Z,18.70
2023-02-26T11:37:24.246Z,11.80
2023-02-26T11:39:58.478Z,9.30
2023-02-26T11:42:27.423Z,8.30
2023-02-26T11:44:56.196Z,7.70
2023-02-26T11:47:30.559Z,7.40
2023-02-26T11:50:05.940Z,7.00
2023-02-26T11:52:40.818Z,11.10
2023-02-26T11:55:28.450Z,9.60
2023-02-26T11:57:57.474Z,8.10
2023-02-26T12:00:33.408Z,9.60
2023-02-26T12:03:13.048Z,7.50
2023-02-26T12:05:42.308Z,8.50
2023-02-26T12:08:23.059Z,7.80
2023-02-26T12:10:58.358Z,7.70
2023-02-26T12:13:36.533Z,7.90
2023-02-26T12:16:46.097Z,7.60
2023-02-26T12:19:36.699Z,7.50
2023-02-26T12:22:27.850Z,8.30
2023-02-26T12:25:42.026Z,7.80
2023-02-26T12:28:26.874Z,9.20
2023-02-26T12:31:21.709Z,7.80
2023-02-26T12:34:09.159Z,9.00
2023-02-26T12:37:01.281Z,9.90
2023-02-26T12:40:08.719Z,8.70
2023-02-26T12:43:00.378Z,7.90
2023-02-26T12:46:02.919Z,8.10
2023-02-26T12:48:59.981Z,8.10
2023-02-26T12:52:01.121Z,7.60
2023-02-26T12:54:36.668Z,7.00
2023-02-26T12:57:14.021Z,8.20
2023-02-26T13:00:01.040Z,8.20
2023-02-26T13:02:52.592Z,7.90
2023-02-26T13:08:47.062Z,13.60
2023-02-26T13:11:35.862Z,9.10
2023-02-26T13:14:33.941Z,8.00
2023-02-26T13:17:23.502Z,8.30
2023-02-26T13:20:00.433Z,7.50
2023-02-26T13:22:33.463Z,6.70
2023-02-26T13:25:05.703Z,7.50
2023-02-26T13:27:36.926Z,7.00
2023-02-26T13:30:18.385Z,6.70
2023-02-26T13:35:23.195Z,7.50
2023-02-26T13:37:54.344Z,7.00
2023-02-26T13:40:53.986Z,6.90
2023-02-26T13:43:49.257Z,7.60
2023-02-26T13:46:34.312Z,6.70
2023-02-26T13:49:18.081Z,6.30
2023-02-26T13:51:53.694Z,7.40
2023-02-26T13:54:22.713Z,7.20
2023-02-26T13:57:13.261Z,7.10
2023-02-26T13:59:47.260Z,7.20
2023-02-26T14:02:19.441Z,6.50
2023-02-26T14:05:01.633Z,7.70
2023-02-26T14:08:10.760Z,7.10
2023-02-26T14:10:47.760Z,6.90
2023-02-26T14:13:20.031Z,7.90
2023-02-26T14:16:03.157Z,7.70
2023-02-26T14:18:41.400Z,7.80
2023-02-26T14:21:28.749Z,7.40
2023-02-26T14:23:59.632Z,6.90
2023-02-26T14:26:30.214Z,6.70
2023-02-26T14:29:09.361Z,7.10
2023-02-26T14:31:51.609Z,11.20
2023-02-26T14:34:25.214Z,8.70
2023-02-26T14:36:59.453Z,7.50
2023-02-26T14:39:48.078Z,8.70
2023-02-26T14:42:20.672Z,8.00
2023-02-26T14:44:51.942Z,7.10
2023-02-26T14:47:20.715Z,6.40
2023-02-26T14:49:59.885Z,7.30
2023-02-26T14:53:05.980Z,6.50
2023-02-26T14:56:11.142Z,7.30
2023-02-26T14:58:44.058Z,7.00
2023-02-26T15:01:24.963Z,7.00
2023-02-26T15:04:10.888Z,8.90
2023-02-26T15:06:52.321Z,6.80
2023-02-26T15:12:26.110Z,7.10
2023-02-26T15:15:33.870Z,6.50
2023-02-26T15:18:31.171Z,6.40
2023-02-26T15:21:15.417Z,7.50
2023-02-26T15:23:55.119Z,8.70
2023-02-26T15:26:30.162Z,7.70
2023-02-26T15:29:06.960Z,9.90
2023-02-26T15:32:06.168Z,11.60
2023-02-26T15:34:35.592Z,11.40
2023-02-26T15:37:04.400Z,12.50
2023-02-26T15:39:33.540Z,10.50
2023-02-26T15:42:02.891Z,11.50
2023-02-26T15:44:32.507Z,9.90
2023-02-26T15:47:02.473Z,11.10
2023-02-26T15:49:39.103Z,10.80
2023-02-26T15:52:09.260Z,16.00
2023-02-26T15:54:51.343Z,20.60
2023-02-26T15:57:24.606Z,22.20
2023-02-26T15:59:55.778Z,23.30
2023-02-26T16:02:30.440Z,21.80
2023-02-26T16:04:59.284Z,15.00
2023-02-26T16:07:28.179Z,14.00
2023-02-26T16:09:58.085Z,11.50
2023-02-26T16:12:44.062Z,11.30
2023-02-26T16:15:18.298Z,9.80
2023-02-26T16:17:49.798Z,9.80
2023-02-26T16:20:23.082Z,9.60
2023-02-26T16:23:00.365Z,10.30
2023-02-26T16:25:56.678Z,9.30
2023-02-26T16:28:38.262Z,8.10
2023-02-26T16:31:09.649Z,9.00
2023-02-26T16:33:39.685Z,11.40
2023-02-26T16:36:16.367Z,9.50
2023-02-26T16:38:47.522Z,9.90
2023-02-26T16:41:16.889Z,11.50
2023-02-26T16:43:45.773Z,11.90
2023-02-26T16:46:28.915Z,13.90
2023-02-26T16:49:11.070Z,14.50
2023-02-26T16:51:40.687Z,13.10
2023-02-26T16:54:27.530Z,13.10
2023-02-26T16:57:18.993Z,10.60
2023-02-26T16:59:51.889Z,10.30
2023-02-26T17:02:23.285Z,9.70
2023-02-26T17:04:58.798Z,11.50
2023-02-26T17:07:28.705Z,14.00
2023-02-26T17:10:08.664Z,12.80
2023-02-26T17:12:50.070Z,9.90
2023-02-26T17:15:28.356Z,9.40
2023-02-26T17:18:03.614Z,10.40
2023-02-26T17:20:33.876Z,9.10
2023-02-26T17:23:03.548Z,8.90
2023-02-26T17:25:38.004Z,9.40
2023-02-26T17:28:07.085Z,12.70
2023-02-26T17:30:36.781Z,15.50
2023-02-26T17:33:08.314Z,16.50
2023-02-26T17:35:38.134Z,12.40
2023-02-26T17:38:07.273Z,19.50
2023-02-26T17:40:40.079Z,20.40
2023-02-26T17:43:10.421Z,21.10
2023-02-26T17:45:40.729Z,33.00
2023-02-26T17:48:09.598Z,26.70
2023-02-26T17:50:57.225Z,23.90
2023-02-26T17:53:29.878Z,17.60
2023-02-26T17:56:00.393Z,14.20
2023-02-26T17:58:30.898Z,12.00
2023-02-26T18:01:00.198Z,10.00
2023-02-26T18:03:29.193Z,9.80
2023-02-26T18:05:58.247Z,18.70
2023-02-26T18:08:29.350Z,15.40
2023-02-26T18:13:28.857Z,21.50
2023-02-26T18:16:03.081Z,24.70
2023-02-26T18:18:33.748Z,20.90
2023-02-26T18:21:02.754Z,19.40
2023-02-26T18:23:34.799Z,22.00
2023-02-26T18:26:03.751Z,17.50
2023-02-26T18:28:32.834Z,17.80
2023-02-26T18:31:03.045Z,15.50
2023-02-26T18:33:34.003Z,12.60
2023-02-26T18:36:03.237Z,9.50
2023-02-26T18:38:32.120Z,11.10
2023-02-26T18:41:02.586Z,10.10
2023-02-26T18:43:31.957Z,9.30
2023-02-26T18:46:02.352Z,10.20
2023-02-26T18:48:31.190Z,10.00
2023-02-26T18:51:00.968Z,10.60
2023-02-26T18:53:30.468Z,11.40
2023-02-26T18:56:00.588Z,10.70
2023-02-26T18:58:29.923Z,9.50
2023-02-26T19:01:05.254Z,13.20
2023-02-26T19:03:35.796Z,11.20
2023-02-26T19:06:05.884Z,11.90
2023-02-26T19:08:37.227Z,11.40
2023-02-26T19:11:05.866Z,9.50
2023-02-26T19:13:38.748Z,11.00
2023-02-26T19:16:07.482Z,12.40
2023-02-26T19:18:36.446Z,14.10
2023-02-26T19:21:06.180Z,11.20
2023-02-26T19:23:37.234Z,10.80
2023-02-26T19:26:06.431Z,11.30
2023-02-26T19:28:35.449Z,10.70
2023-02-26T19:33:36.656Z,10.80
2023-02-26T19:38:38.015Z,9.00
2023-02-26T19:41:06.897Z,10.70
2023-02-26T19:43:38.980Z,10.00
2023-02-26T19:46:07.476Z,9.70
2023-02-26T19:48:36.663Z,9.40
2023-02-26T19:51:06.432Z,10.60
2023-02-26T19:53:35.814Z,9.60
2023-02-26T19:56:07.677Z,10.50
2023-02-26T19:58:36.935Z,10.10
2023-02-26T20:01:06.058Z,9.60
2023-02-26T20:03:37.358Z,10.10
2023-02-26T20:06:08.637Z,10.00
2023-02-26T20:08:37.273Z,9.60
2023-02-26T20:11:05.815Z,9.50
2023-02-26T20:13:35.961Z,10.10
2023-02-26T20:16:10.169Z,9.20
2023-02-26T20:18:39.460Z,9.50
2023-02-26T20:21:09.558Z,9.50
2023-02-26T20:23:40.738Z,9.50
2023-02-26T20:26:11.703Z,9.00
2023-02-26T20:31:11.858Z,8.70
2023-02-26T20:33:43.840Z,8.20
2023-02-26T20:36:13.152Z,9.80
2023-02-26T20:38:43.200Z,9.50
2023-02-26T20:41:12.134Z,9.10
2023-02-26T20:43:40.761Z,9.80
2023-02-26T20:46:09.998Z,8.90
2023-02-26T20:48:42.147Z,9.10
2023-02-26T20:51:12.607Z,10.60
2023-02-26T20:53:41.519Z,8.80
2023-02-26T20:56:12.779Z,9.50
2023-02-26T20:58:42.572Z,9.10
2023-02-26T21:01:11.377Z,9.10
2023-02-26T21:03:40.474Z,9.00
2023-02-26T21:06:10.667Z,8.70
2023-02-26T21:08:43.527Z,9.50
2023-02-26T21:11:12.626Z,8.30
2023-02-26T21:13:46.919Z,9.50
2023-02-26T21:16:15.735Z,8.60
2023-02-26T21:18:44.897Z,10.00
2023-02-26T21:21:17.106Z,9.50
2023-02-26T21:23:45.869Z,9.00
2023-02-26T21:26:14.832Z,9.30
2023-02-26T21:28:48.652Z,7.90
2023-02-26T21:31:22.320Z,7.80
2023-02-26T21:33:51.386Z,7.80
2023-02-26T21:36:21.342Z,7.50
2023-02-26T21:38:52.779Z,7.50
2023-02-26T21:41:22.365Z,7.80
2023-02-26T21:43:51.329Z,7.80
2023-02-26T21:46:20.418Z,6.80
2023-02-26T21:48:51.646Z,7.30
2023-02-26T21:51:21.749Z,6.20
2023-02-26T21:53:50.339Z,6.10
2023-02-26T21:56:20.614Z,4.90
2023-02-26T21:58:50.185Z,4.30
2023-02-26T22:01:19.776Z,5.10
2023-02-26T22:03:48.645Z,6.20
2023-02-26T22:06:17.889Z,4.70
2023-02-26T22:08:47.306Z,4.30
2023-02-26T22:11:19.014Z,4.10
2023-02-26T22:13:49.482Z,4.80
2023-02-26T22:16:18.759Z,4.50
2023-02-26T22:18:48.820Z,4.00
2023-02-26T22:21:19.024Z,4.20
2023-02-26T22:23:47.936Z,4.00
2023-02-26T22:26:17.388Z,4.40
2023-02-26T22:28:46.229Z,4.50
2023-02-26T22:31:15.470Z,4.00
2023-02-26T22:33:44.413Z,4.20
2023-02-26T22:36:13.487Z,4.50
2023-02-26T22:38:42.522Z,4.30
2023-02-26T22:41:11.913Z,4.00
2023-02-26T22:43:41.828Z,4.00
2023-02-26T22:46:10.854Z,4.10
2023-02-26T22:48:40.130Z,4.50
2023-02-26T22:51:10.066Z,4.40
2023-02-26T22:53:38.969Z,5.00
2023-02-26T22:56:07.674Z,4.20
2023-02-26T22:58:36.464Z,4.40
2023-02-26T23:01:07.057Z,4.40
2023-02-26T23:03:36.111Z,5.10
2023-02-26T23:06:05.762Z,4.30
2023-02-26T23:08:35.156Z,5.00
2023-02-26T23:11:04.776Z,4.30
2023-02-26T23:13:35.839Z,4.30
2023-02-26T23:16:24.426Z,5.60
2023-02-26T23:18:53.866Z,5.20
2023-02-26T23:21:22.440Z,4.60
2023-02-26T23:23:51.051Z,5.00
2023-02-26T23:26:25.543Z,4.60
2023-02-26T23:28:57.041Z,4.80
2023-02-26T23:31:26.287Z,4.70
2023-02-26T23:33:55.522Z,5.20
2023-02-26T23:36:24.708Z,4.40
2023-02-26T23:38:53.402Z,5.00
2023-02-26T23:41:22.134Z,5.10
2023-02-26T23:43:50.644Z,5.40
2023-02-26T23:46:20.319Z,5.30
2023-02-26T23:48:51.814Z,4.80
2023-02-26T23:51:20.388Z,4.90
2023-02-26T23:53:49.005Z,5.00
2023-02-26T23:56:17.580Z,5.30
2023-02-26T23:58:46.973Z,5.10
